Time;durP1;ratioP1;P1;durP2;ratioP2;P2;SDS_P1;SDS_P2;PMS_P1;PMS_P2;Temp;Humidity;BMP_temperature;BMP_pressure;BME280_temperature;BME280_humidity;BME280_pressure;Samples;Min_cycle;Max_cycle;Signal;HPM_P1;HPM_P2
2023/02/21 02:15:53;;;;;;;20.40;18.43;;;;;;;;;;5017554;28;20224;-89
2023/02/21 02:18:38;;;;;;;20.23;18.30;;;;;;;;;;5031662;28;20250;-86
2023/02/21 02:21:17;;;;;;;19.07;17.33;;;;;;;;;;5000728;28;20246;-87
2023/02/21 02:24:06;;;;;;;18.47;16.87;;;;;;;;;;5015526;28;20589;-84
2023/02/21 02:27:21;;;;;;;19.93;18.07;;;;;;;;;;5005373;28;20319;-85
2023/02/21 02:30:24;;;;;;;17.97;16.33;;;;;;;;;;4972100;28;20235;-86
2023/02/21 02:33:26;;;;;;;17.67;15.97;;;;;;;;;;5016690;28;20234;-86
2023/02/21 02:35:57;;;;;;;17.73;16.17;;;;;;;;;;4993293;28;20295;-87
2023/02/21 02:38:36;;;;;;;19.23;17.43;;;;;;;;;;5001655;28;20220;-88
2023/02/21 02:41:14;;;;;;;18.27;16.57;;;;;;;;;;5034652;28;20224;-87
2023/02/21 02:43:47;;;;;;;18.50;16.87;;;;;;;;;;4998109;28;20220;-88
2023/02/21 02:46:19;;;;;;;18.03;16.20;;;;;;;;;;4977075;28;20231;-88
2023/02/21 02:49:06;;;;;;;17.97;16.37;;;;;;;;;;5001700;28;20220;-86
2023/02/21 02:51:35;;;;;;;18.07;16.30;;;;;;;;;;4980311;28;20270;-86
2023/02/21 02:54:03;;;;;;;17.83;16.23;;;;;;;;;;5006966;28;20212;-83
2023/02/21 02:56:29;;;;;;;18.30;16.73;;;;;;;;;;5010518;28;20231;-88
2023/02/21 02:59:06;;;;;;;16.97;15.40;;;;;;;;;;4976316;28;20216;-86
2023/02/21 03:01:50;;;;;;;18.63;16.73;;;;;;;;;;4968441;28;20224;-89
2023/02/21 03:04:40;;;;;;;16.87;15.47;;;;;;;;;;5025990;28;20216;-88
2023/02/21 03:07:46;;;;;;;18.20;16.70;;;;;;;;;;5000692;28;20669;-87
2023/02/21 03:10:34;;;;;;;19.27;17.43;;;;;;;;;;5017277;28;20250;-88
2023/02/21 03:13:23;;;;;;;17.33;15.77;;;;;;;;;;5019148;28;20306;-88
2023/02/21 03:15:55;;;;;;;18.83;17.13;;;;;;;;;;5004873;28;20227;-86
2023/02/21 03:18:28;;;;;;;18.53;16.73;;;;;;;;;;5017967;28;20306;-86
2023/02/21 03:21:00;;;;;;;19.37;17.47;;;;;;;;;;5023667;28;20212;-86
2023/02/21 03:23:27;;;;;;;17.90;16.30;;;;;;;;;;5007330;28;20232;-86
2023/02/21 03:25:53;;;;;;;19.40;17.50;;;;;;;;;;4999266;28;20228;-87
2023/02/21 03:28:20;;;;;;;18.13;16.17;;;;;;;;;;4998561;28;20228;-87
2023/02/21 03:30:47;;;;;;;17.63;16.03;;;;;;;;;;4977552;28;20621;-86
2023/02/21 03:33:13;;;;;;;18.37;16.63;;;;;;;;;;4987958;28;20243;-86
2023/02/21 03:35:44;;;;;;;18.07;16.47;;;;;;;;;;4987171;28;20239;-85
2023/02/21 03:38:10;;;;;;;18.27;16.47;;;;;;;;;;4984872;28;20232;-89
2023/02/21 03:40:38;;;;;;;19.30;17.53;;;;;;;;;;4983062;28;20286;-87
2023/02/21 03:43:06;;;;;;;19.43;17.20;;;;;;;;;;5014966;28;20216;-87
2023/02/21 03:45:37;;;;;;;19.80;17.73;;;;;;;;;;4984261;28;20700;-87
2023/02/21 03:48:07;;;;;;;19.57;17.60;;;;;;;;;;4983757;28;20303;-87
2023/02/21 03:50:35;;;;;;;20.90;18.77;;;;;;;;;;4986558;28;20212;-86
2023/02/21 03:53:01;;;;;;;20.67;18.77;;;;;;;;;;5002476;28;20216;-87
2023/02/21 03:55:30;;;;;;;20.50;18.53;;;;;;;;;;5011995;28;20279;-85
2023/02/21 03:57:57;;;;;;;20.67;18.53;;;;;;;;;;5006798;28;20217;-86
2023/02/21 04:00:23;;;;;;;20.73;18.77;;;;;;;;;;4995136;28;20231;-81
2023/02/21 04:02:52;;;;;;;19.93;17.83;;;;;;;;;;5000938;28;20234;-86
2023/02/21 04:05:29;;;;;;;19.90;18.10;;;;;;;;;;4981562;28;20235;-87
2023/02/21 04:07:55;;;;;;;19.50;17.70;;;;;;;;;;4978975;28;20227;-89
2023/02/21 04:10:23;;;;;;;21.70;19.50;;;;;;;;;;4982764;28;20212;-87
2023/02/21 04:12:49;;;;;;;20.67;18.67;;;;;;;;;;5014532;28;20251;-87
2023/02/21 04:15:15;;;;;;;19.53;17.50;;;;;;;;;;4990161;28;20287;-86
2023/02/21 04:17:41;;;;;;;20.13;18.23;;;;;;;;;;5002114;28;20223;-89
2023/02/21 04:20:09;;;;;;;22.77;18.63;;;;;;;;;;4968782;28;20631;-88
2023/02/21 04:22:40;;;;;;;19.77;17.93;;;;;;;;;;5001264;28;20298;-90
2023/02/21 04:25:09;;;;;;;20.77;18.10;;;;;;;;;;5002522;28;20211;-90
2023/02/21 04:27:40;;;;;;;19.40;17.53;;;;;;;;;;5006865;28;20219;-87
2023/02/21 04:30:09;;;;;;;20.30;18.30;;;;;;;;;;5004201;28;20226;-88
2023/02/21 04:32:35;;;;;;;19.07;17.37;;;;;;;;;;4966714;28;20232;-90
2023/02/21 04:35:07;;;;;;;19.70;17.90;;;;;;;;;;4968154;28;20767;-88
2023/02/21 04:37:35;;;;;;;20.63;17.20;;;;;;;;;;4992341;28;20298;-89
2023/02/21 04:40:01;;;;;;;20.97;18.87;;;;;;;;;;4998295;28;20799;-89
2023/02/21 04:42:29;;;;;;;19.10;17.17;;;;;;;;;;4999852;28;20279;-86
2023/02/21 04:44:55;;;;;;;19.23;17.33;;;;;;;;;;4981085;28;20647;-88
2023/02/21 04:47:22;;;;;;;20.63;18.53;;;;;;;;;;4998705;28;20369;-86
2023/02/21 04:49:50;;;;;;;19.77;17.83;;;;;;;;;;4998506;28;20306;-89
2023/02/21 04:52:19;;;;;;;21.17;18.80;;;;;;;;;;4969221;28;20957;-89
2023/02/21 04:54:46;;;;;;;19.43;17.43;;;;;;;;;;5002524;28;20260;-88
2023/02/21 04:57:12;;;;;;;19.43;17.63;;;;;;;;;;4984601;28;20216;-87
2023/02/21 04:59:37;;;;;;;18.40;16.60;;;;;;;;;;5014899;28;20239;-87
2023/02/21 05:02:05;;;;;;;17.13;15.53;;;;;;;;;;4965123;28;20231;-88
2023/02/21 05:04:30;;;;;;;16.50;15.00;;;;;;;;;;4994997;28;20585;-85
2023/02/21 05:06:58;;;;;;;15.07;13.67;;;;;;;;;;5014412;28;20228;-85
2023/02/21 05:09:23;;;;;;;16.00;14.30;;;;;;;;;;4982257;28;20281;-88
2023/02/21 05:11:51;;;;;;;16.53;14.97;;;;;;;;;;5000845;28;20219;-88
2023/02/21 05:14:23;;;;;;;17.47;14.90;;;;;;;;;;4981088;28;20307;-86
2023/02/21 05:16:48;;;;;;;14.93;13.53;;;;;;;;;;4988687;28;20236;-86
2023/02/21 05:19:26;;;;;;;15.03;13.53;;;;;;;;;;5000176;28;20526;-87
2023/02/21 05:21:56;;;;;;;15.13;13.63;;;;;;;;;;4987081;28;20306;-87
2023/02/21 05:24:25;;;;;;;16.70;15.03;;;;;;;;;;4968263;28;20236;-86
2023/02/21 05:26:50;;;;;;;15.03;13.63;;;;;;;;;;4987567;28;20223;-86
2023/02/21 05:29:18;;;;;;;13.93;12.73;;;;;;;;;;4990110;28;20228;-86
2023/02/21 05:31:44;;;;;;;15.50;14.10;;;;;;;;;;5001635;28;20231;-84
2023/02/21 05:34:10;;;;;;;15.03;13.53;;;;;;;;;;4988947;28;20220;-88
2023/02/21 05:36:36;;;;;;;14.63;13.23;;;;;;;;;;5006464;28;20241;-88
2023/02/21 05:39:02;;;;;;;14.67;13.37;;;;;;;;;;5021680;28;20212;-88
2023/02/21 05:41:30;;;;;;;13.80;12.37;;;;;;;;;;5025606;28;20232;-85
2023/02/21 05:43:56;;;;;;;14.40;13.10;;;;;;;;;;5017716;28;20208;-85
2023/02/21 05:46:29;;;;;;;14.50;13.03;;;;;;;;;;5018385;28;20234;-88
2023/02/21 05:48:58;;;;;;;14.47;13.10;;;;;;;;;;5037300;28;20204;-85
2023/02/21 05:51:26;;;;;;;15.20;13.70;;;;;;;;;;5022272;28;20280;-85
2023/02/21 05:53:54;;;;;;;14.37;13.07;;;;;;;;;;5022523;28;20219;-86
2023/02/21 05:56:22;;;;;;;14.23;12.93;;;;;;;;;;5030198;28;20221;-86
2023/02/21 05:58:48;;;;;;;14.03;12.73;;;;;;;;;;5023772;28;20201;-86
2023/02/21 06:01:13;;;;;;;13.60;12.37;;;;;;;;;;5010168;28;20234;-82
2023/02/21 06:03:42;;;;;;;13.67;12.47;;;;;;;;;;5021780;28;20208;-87
2023/02/21 06:06:10;;;;;;;13.87;12.53;;;;;;;;;;5020065;28;20263;-88
2023/02/21 06:08:47;;;;;;;14.77;13.47;;;;;;;;;;5006983;28;20283;-87
2023/02/21 06:11:15;;;;;;;14.77;12.93;;;;;;;;;;4971113;28;20700;-88
2023/02/21 06:13:41;;;;;;;13.53;12.30;;;;;;;;;;4993191;28;20271;-86
2023/02/21 06:16:07;;;;;;;14.90;12.80;;;;;;;;;;5002701;28;20220;-88
2023/02/21 06:18:32;;;;;;;14.27;12.83;;;;;;;;;;4994082;28;20247;-88
2023/02/21 06:21:00;;;;;;;13.90;12.70;;;;;;;;;;4971865;28;20242;-87
2023/02/21 06:23:25;;;;;;;14.83;13.33;;;;;;;;;;5002801;28;20220;-86
2023/02/21 06:25:53;;;;;;;13.90;12.53;;;;;;;;;;4986021;28;20224;-88
2023/02/21 06:28:19;;;;;;;12.70;11.60;;;;;;;;;;4983709;28;20228;-86
2023/02/21 06:30:44;;;;;;;13.33;12.03;;;;;;;;;;5000380;28;20773;-89
2023/02/21 06:33:10;;;;;;;13.13;11.93;;;;;;;;;;5002555;28;20219;-89
2023/02/21 06:35:35;;;;;;;13.87;12.43;;;;;;;;;;5002273;28;20601;-88
2023/02/21 06:38:02;;;;;;;15.13;13.73;;;;;;;;;;4985527;28;20220;-90
2023/02/21 06:40:27;;;;;;;13.33;12.03;;;;;;;;;;4985320;28;20802;-89
2023/02/21 06:42:53;;;;;;;13.43;12.23;;;;;;;;;;5001107;28;20314;-86
2023/02/21 06:45:18;;;;;;;13.97;12.57;;;;;;;;;;5000883;28;20212;-87
2023/02/21 06:47:44;;;;;;;13.93;12.57;;;;;;;;;;4999563;28;20225;-87
2023/02/21 06:50:12;;;;;;;13.20;11.87;;;;;;;;;;4983906;28;20208;-87
2023/02/21 06:52:40;;;;;;;14.00;12.63;;;;;;;;;;4998832;28;20256;-87
2023/02/21 06:55:06;;;;;;;13.37;12.13;;;;;;;;;;4982808;28;20223;-89
2023/02/21 06:57:32;;;;;;;13.57;12.33;;;;;;;;;;4987368;28;20217;-85
2023/02/21 06:59:59;;;;;;;12.77;11.57;;;;;;;;;;4974939;28;20223;-87
2023/02/21 07:02:25;;;;;;;13.37;12.17;;;;;;;;;;4984535;28;20224;-89
2023/02/21 07:04:51;;;;;;;13.73;12.33;;;;;;;;;;4995732;28;20212;-88
2023/02/21 07:07:16;;;;;;;14.50;13.10;;;;;;;;;;5010735;28;20221;-89
2023/02/21 07:09:42;;;;;;;15.97;14.43;;;;;;;;;;4967541;28;20220;-89
2023/02/21 07:12:07;;;;;;;14.73;13.33;;;;;;;;;;5000686;28;20216;-89
2023/02/21 07:14:33;;;;;;;14.43;13.23;;;;;;;;;;4986951;28;20228;-86
2023/02/21 07:16:59;;;;;;;15.53;13.93;;;;;;;;;;4970865;28;20228;-90
2023/02/21 07:19:25;;;;;;;15.83;14.23;;;;;;;;;;4981162;28;20742;-90
2023/02/21 07:21:51;;;;;;;15.40;13.80;;;;;;;;;;4996768;28;20196;-88
2023/02/21 07:24:17;;;;;;;15.30;14.00;;;;;;;;;;5010989;28;20216;-87
2023/02/21 07:26:45;;;;;;;15.30;13.87;;;;;;;;;;4993660;28;20235;-84
2023/02/21 07:29:13;;;;;;;15.47;13.90;;;;;;;;;;4996298;28;20230;-87
2023/02/21 07:31:40;;;;;;;14.77;13.37;;;;;;;;;;5002113;28;20223;-89
2023/02/21 07:34:06;;;;;;;14.60;13.10;;;;;;;;;;4982722;28;20768;-88
2023/02/21 07:36:31;;;;;;;14.47;13.13;;;;;;;;;;4969352;28;20649;-86
2023/02/21 07:38:57;;;;;;;15.60;13.60;;;;;;;;;;4990953;28;20286;-88
2023/02/21 07:41:22;;;;;;;15.17;13.67;;;;;;;;;;5005053;28;20277;-90
2023/02/21 07:43:48;;;;;;;15.37;13.87;;;;;;;;;;5000469;28;20221;-89
2023/02/21 07:46:14;;;;;;;14.27;12.93;;;;;;;;;;4984170;28;20212;-88
2023/02/21 07:48:40;;;;;;;14.93;13.60;;;;;;;;;;4996327;28;20316;-89
2023/02/21 07:51:06;;;;;;;14.77;13.40;;;;;;;;;;5021306;28;20216;-88
2023/02/21 07:53:32;;;;;;;14.27;12.93;;;;;;;;;;4999462;28;20220;-87
2023/02/21 07:55:58;;;;;;;14.10;12.60;;;;;;;;;;5019727;28;20223;-87
2023/02/21 07:58:24;;;;;;;15.10;13.53;;;;;;;;;;4986453;28;20591;-87
2023/02/21 08:00:50;;;;;;;14.50;13.10;;;;;;;;;;4958951;28;20264;-88
2023/02/21 08:03:15;;;;;;;15.27;13.67;;;;;;;;;;5014566;28;20661;-87
2023/02/21 08:05:41;;;;;;;18.37;16.57;;;;;;;;;;5009131;28;20299;-88
2023/02/21 08:08:11;;;;;;;17.57;15.83;;;;;;;;;;4985254;28;20226;-88
2023/02/21 08:10:36;;;;;;;17.27;15.57;;;;;;;;;;4997806;28;20315;-87
2023/02/21 08:13:02;;;;;;;14.47;13.07;;;;;;;;;;4994519;28;20211;-89
2023/02/21 08:15:30;;;;;;;15.90;14.30;;;;;;;;;;4999508;28;20233;-88
2023/02/21 08:17:55;;;;;;;16.27;14.67;;;;;;;;;;5011950;28;20220;-89
2023/02/21 08:20:23;;;;;;;14.57;13.07;;;;;;;;;;4963503;28;20223;-87
2023/02/21 08:22:48;;;;;;;26.23;21.27;;;;;;;;;;4997601;28;20215;-88
2023/02/21 08:25:14;;;;;;;14.90;12.73;;;;;;;;;;4999594;28;20216;-87
2023/02/21 08:27:40;;;;;;;24.80;20.37;;;;;;;;;;5006235;28;20216;-87
2023/02/21 08:30:07;;;;;;;13.50;12.20;;;;;;;;;;4987748;28;20716;-88
2023/02/21 08:32:34;;;;;;;12.40;11.23;;;;;;;;;;5024379;28;20230;-87
2023/02/21 08:34:59;;;;;;;11.43;10.33;;;;;;;;;;4975143;28;20227;-86
2023/02/21 08:37:31;;;;;;;16.50;14.87;;;;;;;;;;5007298;28;20297;-87
2023/02/21 08:39:59;;;;;;;11.77;10.57;;;;;;;;;;4963061;28;20221;-87
2023/02/21 08:42:27;;;;;;;16.40;13.57;;;;;;;;;;4999726;28;20634;-87
2023/02/21 08:44:53;;;;;;;16.17;14.57;;;;;;;;;;4996734;28;20228;-89
2023/02/21 08:47:19;;;;;;;13.63;12.33;;;;;;;;;;4997662;28;20573;-87
2023/02/21 08:49:46;;;;;;;15.33;13.80;;;;;;;;;;4966889;28;20220;-89
2023/02/21 08:52:13;;;;;;;15.97;14.37;;;;;;;;;;4967943;28;20647;-86
2023/02/21 08:54:39;;;;;;;14.07;12.70;;;;;;;;;;4979609;28;20275;-87
2023/02/21 08:57:04;;;;;;;10.80;9.80;;;;;;;;;;4984764;28;20220;-88
2023/02/21 08:59:32;;;;;;;12.27;11.07;;;;;;;;;;4980178;28;20250;-87
2023/02/21 09:02:00;;;;;;;14.17;12.87;;;;;;;;;;5000137;28;20228;-87
2023/02/21 09:04:26;;;;;;;12.93;11.73;;;;;;;;;;5016472;28;20219;-86
2023/02/21 09:06:53;;;;;;;13.40;12.10;;;;;;;;;;4982685;28;20599;-85
2023/02/21 09:09:19;;;;;;;13.53;12.23;;;;;;;;;;5015469;28;20692;-87
2023/02/21 09:11:48;;;;;;;15.37;13.83;;;;;;;;;;5000704;28;20218;-88
2023/02/21 09:14:18;;;;;;;15.10;13.40;;;;;;;;;;4995831;28;20677;-87
2023/02/21 09:16:44;;;;;;;14.47;13.07;;;;;;;;;;4960818;28;20279;-87
2023/02/21 09:19:13;;;;;;;13.30;12.00;;;;;;;;;;4992648;28;20216;-87
2023/02/21 09:21:54;;;;;;;13.53;12.23;;;;;;;;;;5000276;28;20223;-86
2023/02/21 09:24:24;;;;;;;16.23;14.63;;;;;;;;;;4982788;28;20691;-86
2023/02/21 09:26:53;;;;;;;13.73;12.33;;;;;;;;;;4998050;28;20721;-86
2023/02/21 09:29:21;;;;;;;13.83;12.23;;;;;;;;;;5009676;28;20219;-86
2023/02/21 09:31:48;;;;;;;18.40;14.53;;;;;;;;;;4997157;28;20224;-87
2023/02/21 09:34:14;;;;;;;12.60;11.30;;;;;;;;;;5014659;28;20247;-86
2023/02/21 09:36:39;;;;;;;12.63;11.43;;;;;;;;;;4996051;28;20247;-85
2023/02/21 09:39:05;;;;;;;11.93;10.93;;;;;;;;;;4982251;28;20553;-86
2023/02/21 09:41:38;;;;;;;12.77;11.17;;;;;;;;;;4998975;28;20703;-87
2023/02/21 09:44:06;;;;;;;11.13;9.93;;;;;;;;;;4983230;28;20258;-85
2023/02/21 09:46:39;;;;;;;12.50;11.20;;;;;;;;;;4998326;28;20753;-87
2023/02/21 09:49:09;;;;;;;12.03;10.93;;;;;;;;;;4964401;28;20209;-87
2023/02/21 09:51:40;;;;;;;12.03;10.73;;;;;;;;;;4965784;28;20869;-87
2023/02/21 09:54:16;;;;;;;12.17;11.07;;;;;;;;;;4998268;28;20219;-87
2023/02/21 09:56:42;;;;;;;12.60;11.30;;;;;;;;;;4981492;28;20227;-86
2023/02/21 09:59:10;;;;;;;12.67;11.37;;;;;;;;;;4997335;28;20238;-87
2023/02/21 10:01:54;;;;;;;14.17;12.77;;;;;;;;;;4995555;28;20252;-86
2023/02/21 10:04:38;;;;;;;13.43;12.10;;;;;;;;;;5000525;28;20234;-86
2023/02/21 10:07:13;;;;;;;14.40;12.90;;;;;;;;;;5019228;28;20258;-87
2023/02/21 10:09:44;;;;;;;14.47;13.07;;;;;;;;;;5001398;28;20223;-86
2023/02/21 10:12:20;;;;;;;13.83;12.33;;;;;;;;;;5001114;28;20224;-87
2023/02/21 10:14:49;;;;;;;14.93;13.43;;;;;;;;;;5000467;28;20217;-87
2023/02/21 10:17:26;;;;;;;16.57;14.87;;;;;;;;;;5009582;28;20260;-87
2023/02/21 10:20:16;;;;;;;16.47;14.73;;;;;;;;;;4987998;28;20307;-87
2023/02/21 10:22:42;;;;;;;16.17;13.90;;;;;;;;;;5000150;28;20312;-87
2023/02/21 10:25:27;;;;;;;16.60;14.90;;;;;;;;;;5014572;28;20224;-86
2023/02/21 10:27:53;;;;;;;18.97;17.07;;;;;;;;;;4979322;28;20226;-87
2023/02/21 10:30:41;;;;;;;18.73;16.93;;;;;;;;;;5002470;28;20224;-87
2023/02/21 10:33:07;;;;;;;18.30;15.63;;;;;;;;;;5000065;28;20227;-86
2023/02/21 10:35:33;;;;;;;18.80;16.33;;;;;;;;;;5008201;28;20223;-89
2023/02/21 10:38:00;;;;;;;19.07;16.70;;;;;;;;;;4977023;28;20215;-89
2023/02/21 10:40:37;;;;;;;19.93;17.83;;;;;;;;;;5000905;28;20212;-87
2023/02/21 10:43:19;;;;;;;20.27;16.47;;;;;;;;;;5013927;28;20220;-87
2023/02/21 10:45:54;;;;;;;19.63;16.57;;;;;;;;;;5000385;28;20228;-86
2023/02/21 10:48:20;;;;;;;22.13;16.07;;;;;;;;;;4998551;28;20362;-86
2023/02/21 10:51:03;;;;;;;22.73;18.53;;;;;;;;;;5000056;28;20281;-88
2023/02/21 10:53:31;;;;;;;22.70;17.87;;;;;;;;;;5003775;28;20225;-86
2023/02/21 10:56:15;;;;;;;19.57;17.13;;;;;;;;;;5002642;28;20216;-88
2023/02/21 10:58:47;;;;;;;19.53;17.43;;;;;;;;;;5018842;28;20230;-86
2023/02/21 11:01:17;;;;;;;27.17;20.43;;;;;;;;;;5009671;28;20712;-88
2023/02/21 11:03:49;;;;;;;22.20;18.80;;;;;;;;;;4983622;28;20307;-89
2023/02/21 11:06:32;;;;;;;22.43;19.37;;;;;;;;;;4999765;28;20224;-88
2023/02/21 11:09:01;;;;;;;23.10;18.87;;;;;;;;;;5007363;28;20216;-88
2023/02/21 11:11:32;;;;;;;25.30;19.23;;;;;;;;;;4985420;28;20222;-88
2023/02/21 11:14:18;;;;;;;26.00;20.53;;;;;;;;;;5039678;28;20224;-89
2023/02/21 11:16:43;;;;;;;26.43;23.47;;;;;;;;;;4976234;28;20258;-87
2023/02/21 11:19:12;;;;;;;22.40;19.73;;;;;;;;;;5016926;28;20258;-88
2023/02/21 11:21:41;;;;;;;24.73;19.33;;;;;;;;;;4988350;28;20295;-88
2023/02/21 11:24:06;;;;;;;25.33;20.17;;;;;;;;;;5000246;28;20204;-88
2023/02/21 11:26:51;;;;;;;24.60;19.93;;;;;;;;;;5007831;28;20224;-88
2023/02/21 11:29:24;;;;;;;26.33;19.13;;;;;;;;;;4981929;28;20224;-88
2023/02/21 11:31:51;;;;;;;21.77;18.80;;;;;;;;;;5002763;28;20226;-89
2023/02/21 11:34:18;;;;;;;23.90;19.60;;;;;;;;;;4976172;28;20222;-86
2023/02/21 11:36:45;;;;;;;24.67;20.43;;;;;;;;;;5003527;28;20235;-88
2023/02/21 11:39:28;;;;;;;26.37;20.03;;;;;;;;;;4974187;28;20232;-89
2023/02/21 11:42:02;;;;;;;24.20;19.40;;;;;;;;;;4988642;28;20696;-87
2023/02/21 11:44:34;;;;;;;21.90;19.53;;;;;;;;;;4985184;28;20232;-88
2023/02/21 11:47:13;;;;;;;26.67;20.10;;;;;;;;;;5011934;28;20776;-87
2023/02/21 11:49:47;;;;;;;26.07;20.53;;;;;;;;;;5011958;28;20224;-87
2023/02/21 11:52:14;;;;;;;23.40;20.87;;;;;;;;;;5025675;28;20223;-88
2023/02/21 11:54:40;;;;;;;25.50;20.33;;;;;;;;;;5002940;28;20228;-88
2023/02/21 11:57:33;;;;;;;24.30;19.93;;;;;;;;;;5014356;28;20237;-87
2023/02/21 12:00:04;;;;;;;22.00;19.20;;;;;;;;;;5001633;28;20716;-87
2023/02/21 12:02:38;;;;;;;25.00;20.43;;;;;;;;;;5001926;28;20219;-87
2023/02/21 12:05:15;;;;;;;25.80;19.50;;;;;;;;;;5015517;28;20323;-87
2023/02/21 12:08:03;;;;;;;29.00;20.70;;;;;;;;;;5014678;28;20223;-86
2023/02/21 12:10:31;;;;;;;32.40;19.83;;;;;;;;;;4997627;28;20224;-89
2023/02/21 12:13:28;;;;;;;24.50;20.30;;;;;;;;;;5016137;28;20220;-87
2023/02/21 12:16:20;;;;;;;28.23;19.27;;;;;;;;;;5013826;28;20314;-86
2023/02/21 12:19:20;;;;;;;26.53;20.40;;;;;;;;;;5010359;28;20268;-88
2023/02/21 12:22:21;;;;;;;23.77;19.47;;;;;;;;;;5043473;28;20275;-87
2023/02/21 12:24:54;;;;;;;23.47;18.63;;;;;;;;;;4996135;28;20224;-88
2023/02/21 12:27:35;;;;;;;22.97;20.47;;;;;;;;;;5004203;28;20231;-89
2023/02/21 12:30:35;;;;;;;24.10;20.20;;;;;;;;;;5000336;28;20231;-88
2023/02/21 12:33:20;;;;;;;29.47;21.20;;;;;;;;;;5015801;28;20272;-89
2023/02/21 12:35:53;;;;;;;28.40;22.73;;;;;;;;;;5003814;28;20228;-87
2023/02/21 12:38:48;;;;;;;46.93;36.33;;;;;;;;;;5005380;28;20223;-89
2023/02/21 12:41:22;;;;;;;34.97;29.33;;;;;;;;;;4946833;28;20225;-87
2023/02/21 12:43:55;;;;;;;36.30;29.67;;;;;;;;;;5024901;28;22165;-87
2023/02/21 12:47:00;;;;;;;38.17;29.50;;;;;;;;;;4992148;28;20236;-87
2023/02/21 12:49:48;;;;;;;40.83;32.07;;;;;;;;;;4978779;28;20220;-88
2023/02/21 12:52:27;;;;;;;39.87;30.97;;;;;;;;;;5014555;28;20235;-87
2023/02/21 12:55:01;;;;;;;47.60;32.40;;;;;;;;;;5014054;28;20219;-88
2023/02/21 12:57:38;;;;;;;29.63;26.03;;;;;;;;;;5019057;28;20283;-89
2023/02/21 13:00:46;;;;;;;28.23;25.17;;;;;;;;;;5031127;28;20345;-89
2023/02/21 13:03:36;;;;;;;22.07;19.63;;;;;;;;;;4998974;28;20808;-88
2023/02/21 13:06:23;;;;;;;24.00;20.07;;;;;;;;;;5016980;28;20224;-89
2023/02/21 13:09:13;;;;;;;24.27;18.83;;;;;;;;;;4993600;28;20222;-88
2023/02/21 13:11:47;;;;;;;22.63;19.67;;;;;;;;;;5028027;28;20685;-89
2023/02/21 13:14:18;;;;;;;22.07;18.37;;;;;;;;;;4997702;28;20219;-89
2023/02/21 13:16:44;;;;;;;22.00;18.93;;;;;;;;;;4984789;28;20235;-87
2023/02/21 13:19:14;;;;;;;21.53;18.93;;;;;;;;;;5004628;28;20247;-87
2023/02/21 13:21:58;;;;;;;26.20;19.80;;;;;;;;;;4993118;28;20299;-88
2023/02/21 13:24:46;;;;;;;23.67;18.47;;;;;;;;;;5014874;28;20223;-89
2023/02/21 13:27:28;;;;;;;19.17;16.80;;;;;;;;;;5013424;28;20232;-87
2023/02/21 13:30:20;;;;;;;18.73;16.73;;;;;;;;;;4998092;28;20220;-88
2023/02/21 13:32:56;;;;;;;19.60;16.83;;;;;;;;;;4996025;28;20274;-90
2023/02/21 13:35:39;;;;;;;20.63;16.80;;;;;;;;;;4995281;28;20636;-84
2023/02/21 13:38:05;;;;;;;17.87;15.90;;;;;;;;;;5002302;28;20223;-82
2023/02/21 13:40:34;;;;;;;20.93;16.10;;;;;;;;;;5007592;28;20223;-83
2023/02/21 13:43:04;;;;;;;18.33;16.50;;;;;;;;;;5005059;28;20215;-82
2023/02/21 13:45:29;;;;;;;18.37;16.40;;;;;;;;;;5014073;28;20251;-81
2023/02/21 13:47:58;;;;;;;17.73;15.87;;;;;;;;;;5000488;28;20236;-85
2023/02/21 13:50:36;;;;;;;19.63;16.47;;;;;;;;;;5018074;28;20639;-81
2023/02/21 13:53:01;;;;;;;19.07;15.73;;;;;;;;;;5031385;28;21066;-84
2023/02/21 13:55:27;;;;;;;21.80;17.90;;;;;;;;;;5037098;28;20220;-84
2023/02/21 13:57:56;;;;;;;22.47;18.03;;;;;;;;;;5002279;28;20220;-84
2023/02/21 14:00:24;;;;;;;23.23;19.67;;;;;;;;;;5003040;28;20220;-84
2023/02/21 14:03:16;;;;;;;19.87;17.83;;;;;;;;;;5023566;28;20225;-82
2023/02/21 14:05:54;;;;;;;19.67;17.43;;;;;;;;;;5005436;28;20286;-82
2023/02/21 14:08:31;;;;;;;20.50;18.27;;;;;;;;;;5023714;28;20226;-84
2023/02/21 14:11:22;;;;;;;18.10;16.30;;;;;;;;;;5028486;28;20232;-84
2023/02/21 14:13:49;;;;;;;20.17;17.53;;;;;;;;;;4990168;28;20750;-84
2023/02/21 14:16:14;;;;;;;19.20;16.60;;;;;;;;;;5007183;28;20258;-82
2023/02/21 14:18:48;;;;;;;19.27;17.20;;;;;;;;;;5037529;28;20228;-83
2023/02/21 14:21:36;;;;;;;21.47;16.03;;;;;;;;;;5001921;28;20319;-83
2023/02/21 14:24:23;;;;;;;17.47;15.77;;;;;;;;;;5030365;28;20657;-83
2023/02/21 14:26:52;;;;;;;18.17;15.00;;;;;;;;;;5020216;28;20243;-81
2023/02/21 14:29:40;;;;;;;17.43;15.73;;;;;;;;;;5024117;28;20248;-82
2023/02/21 14:32:08;;;;;;;17.10;14.97;;;;;;;;;;5005500;28;20216;-81
2023/02/21 14:34:54;;;;;;;16.03;14.53;;;;;;;;;;5026033;28;20231;-83
2023/02/21 14:38:07;;;;;;;15.90;14.40;;;;;;;;;;5038256;28;20281;-83
2023/02/21 14:40:35;;;;;;;17.17;13.87;;;;;;;;;;4996297;28;20367;-84
2023/02/21 14:43:34;;;;;;;17.53;15.00;;;;;;;;;;5023267;28;20697;-82
2023/02/21 14:46:06;;;;;;;16.73;13.13;;;;;;;;;;5040408;28;20238;-82
2023/02/21 14:48:46;;;;;;;15.03;13.53;;;;;;;;;;5039757;28;20208;-82
2023/02/21 14:51:43;;;;;;;18.43;14.93;;;;;;;;;;5045291;28;20546;-82
2023/02/21 14:54:36;;;;;;;18.03;15.77;;;;;;;;;;5026434;28;20270;-83
2023/02/21 14:57:44;;;;;;;17.23;14.63;;;;;;;;;;5012432;28;20274;-82
2023/02/21 15:00:18;;;;;;;16.40;14.73;;;;;;;;;;5008219;28;20220;-84
2023/02/21 15:03:21;;;;;;;16.57;14.87;;;;;;;;;;5009957;28;20223;-84
2023/02/21 15:06:04;;;;;;;17.90;16.13;;;;;;;;;;5019200;28;20235;-84
2023/02/21 15:08:47;;;;;;;30.47;23.53;;;;;;;;;;5021370;28;20232;-83
2023/02/21 15:11:27;;;;;;;19.97;16.60;;;;;;;;;;5005305;28;20259;-83
2023/02/21 15:14:24;;;;;;;23.27;20.13;;;;;;;;;;5022551;28;20235;-84
2023/02/21 15:16:58;;;;;;;18.07;16.27;;;;;;;;;;5024757;28;20224;-83
2023/02/21 15:19:27;;;;;;;19.43;17.43;;;;;;;;;;4996109;28;20263;-83
2023/02/21 15:22:15;;;;;;;18.87;16.97;;;;;;;;;;5011128;28;20219;-81
2023/02/21 15:24:41;;;;;;;20.23;18.27;;;;;;;;;;5009352;28;20215;-83
2023/02/21 15:27:11;;;;;;;20.13;18.07;;;;;;;;;;5024459;28;20223;-83
2023/02/21 15:29:37;;;;;;;21.53;18.53;;;;;;;;;;4993199;28;20230;-83
2023/02/21 15:32:05;;;;;;;19.40;17.63;;;;;;;;;;5010977;28;20303;-82
2023/02/21 15:34:41;;;;;;;18.67;16.67;;;;;;;;;;5012199;28;20839;-82
2023/02/21 15:37:23;;;;;;;20.83;18.63;;;;;;;;;;5006779;28;20223;-83
2023/02/21 15:39:56;;;;;;;20.63;18.43;;;;;;;;;;5007501;28;20247;-82
2023/02/21 15:42:22;;;;;;;19.27;17.27;;;;;;;;;;5006827;28;20243;-84
2023/02/21 15:44:51;;;;;;;20.40;18.07;;;;;;;;;;4999970;28;20220;-83
2023/02/21 15:47:21;;;;;;;19.70;17.70;;;;;;;;;;5009389;28;20228;-83
2023/02/21 15:50:01;;;;;;;19.47;17.47;;;;;;;;;;4992312;28;20227;-84
2023/02/21 15:52:31;;;;;;;18.83;16.83;;;;;;;;;;5004611;28;20253;-83
2023/02/21 15:55:29;;;;;;;19.67;17.80;;;;;;;;;;5034979;28;20228;-83
2023/02/21 15:57:58;;;;;;;19.73;17.67;;;;;;;;;;5032556;28;20236;-83
2023/02/21 16:00:27;;;;;;;19.77;17.80;;;;;;;;;;5006250;28;20311;-83
2023/02/21 16:03:31;;;;;;;20.17;18.07;;;;;;;;;;5006508;28;20319;-83
2023/02/21 16:06:26;;;;;;;20.37;18.17;;;;;;;;;;5017195;28;20617;-83
2023/02/21 16:09:06;;;;;;;22.30;17.43;;;;;;;;;;5019994;28;20303;-83
2023/02/21 16:11:38;;;;;;;21.07;18.80;;;;;;;;;;5015528;28;20286;-83
2023/02/21 16:14:14;;;;;;;19.97;17.97;;;;;;;;;;5015694;28;20232;-84
2023/02/21 16:16:40;;;;;;;20.00;17.77;;;;;;;;;;5017368;28;20219;-84
2023/02/21 16:19:06;;;;;;;20.20;17.33;;;;;;;;;;5016336;28;20245;-83
2023/02/21 16:21:31;;;;;;;23.23;18.13;;;;;;;;;;5021919;28;20224;-82
2023/02/21 16:23:57;;;;;;;21.43;19.47;;;;;;;;;;5001532;28;20216;-83
2023/02/21 16:26:27;;;;;;;22.13;19.87;;;;;;;;;;4993402;28;20235;-83
2023/02/21 16:28:54;;;;;;;21.10;18.93;;;;;;;;;;5003220;28;20254;-81
2023/02/21 16:31:24;;;;;;;28.47;25.47;;;;;;;;;;5010422;28;20236;-82
2023/02/21 16:33:50;;;;;;;22.43;19.90;;;;;;;;;;5015590;28;20587;-82
2023/02/21 16:36:29;;;;;;;20.60;18.50;;;;;;;;;;5008008;28;20238;-83
2023/02/21 16:38:59;;;;;;;21.00;18.77;;;;;;;;;;5024348;28;20215;-82
2023/02/21 16:41:25;;;;;;;22.67;20.17;;;;;;;;;;4995074;28;20638;-82
2023/02/21 16:43:51;;;;;;;20.17;18.03;;;;;;;;;;4991061;28;20226;-83
2023/02/21 16:46:24;;;;;;;20.13;17.93;;;;;;;;;;4965977;28;20315;-83
2023/02/21 16:48:57;;;;;;;23.60;21.00;;;;;;;;;;4985035;28;20247;-83
2023/02/21 16:51:32;;;;;;;31.80;28.27;;;;;;;;;;5021202;28;20246;-83
2023/02/21 16:54:00;;;;;;;29.63;26.50;;;;;;;;;;5006506;28;21031;-84
2023/02/21 16:56:26;;;;;;;25.93;23.27;;;;;;;;;;4998007;28;20224;-84
2023/02/21 16:58:53;;;;;;;29.13;24.17;;;;;;;;;;4995402;28;20700;-85
2023/02/21 17:01:29;;;;;;;27.80;25.00;;;;;;;;;;5002798;28;20350;-84
2023/02/21 17:03:57;;;;;;;27.87;23.37;;;;;;;;;;4999098;28;20216;-85